aviador You're here:

LFRV Decoded Metar

VANNES in FRANCE
Report Time2018-06-17 21:30:00
UTC Time2018-06-17 21:58:05
Flight Rules lifr LIFR
Wind260° at 07 kt
W.Decomp.*RWY 26: 7.0 kt HW 0.1 kt RCW
RWY 22: 5.3 kt HW 4.6 kt RCW
W.Rank260° ranks 4
Current wind is below 260° avg. (7.2)
Visibility5000 m
Phenomena:Mist
Clouds:Overcast 002 Hf
Expected CloudBase > 400 ft AGL from Temp-Dew spread
Ceiling200 ft
Temp16°C (ISA +2)
Dew Point15°C (94% RH)
AAT15.1°C
QNH1022 hPa
Density Alt594 ft
Elevation445 ft
Report Wrong Elevation
Raw Report
METAR LFRV 172130Z AUTO 26007KT 220V290 5000 BR OVC002 16/15 Q1022=

Extra information for LFRV:More info

Metar Taf Metar & Taf Last 4 Metars F.Rules Stats Wind Profile Meteogram Temp Stats Airport Information Weather charts Add Link Nearby VenuesMetar ALERT Operation Metar Decoded Social comments